首页
METAR-TAF:

METAR-TAF

机场 :

阿姆斯特丹史基浦機場

阿姆斯特丹, 荷兰

纬度: 52-18N, 经度: 004-46E, 海拔: -4米

当前天气观测

该预报发布于39分钟前的08:25 UTC
风速6节,风向,在东南南转西南之间变化
温度 17°C
湿度 77%
气压 1014 hPa
能见度10公里或以上
1500米以下无云,无积雨云

METAR: EHAM 030825Z 17006KT 140V200 CAVOK 17/13 Q1014 NOSIG

时间: 11:04 (09:04 UTC)

预报

该预报发布于4小时和15分钟前的04:49 UTC
预报有效从03日的 06点(UTC)到 04日的 12点(UTC)
风速7节,风向
能见度10公里或以上
少量云层高于2500英尺
短暂存在
从 03日的 06点(UTC)到 03日的 18点(UTC)
能見度: 6000
散云层高于2000英尺, 积雨云.
阵雨
几率 30% :
短暂存在
从 03日的 08点(UTC)到 03日的 14点(UTC)
风速12节,风向多变,有时为22节阵风
能見度: 4000
雷暴, 雨
成为
从 03日的 12点(UTC)到 03日的 15点(UTC)
风速8节,风向北转西北

TAF: EHAM 030449Z 0306/0412 18007KT 9999 FEW025 TEMPO 0306/0318 6000 SHRA SCT020CB PROB30 TEMPO 0308/0314 VRB12G22KT 4000 TSRA BECMG 0312/0315 33008KT

超过4000个机场的气象观测和天气预报(METAR&TAF报告)。

可查询的气象台以黄色和红色小点在地图上表示。

将鼠标移到小点上方,可查看气象台名称。

然后点击查看天气观测和预报。

如需切换地图:点击带黑十字的绿色按钮放大地图;点击带横线的绿色按钮缩小地图;或者点击绿色箭头查看邻近地区的地图。


METAR-TAF: